Airfield :
LOGIN :

Register | Disclaimer

   EN    FR    IT 

 










Legend :    VFR   Marginal VFR   IFR   Intensive IFR   Very Intensive IFR
Visi :
Ceiling :
>= 8 km
>= 3000ft
5 to 8 km
1000 to 3000 ft
1500m to 5 km
500 to 1000 ft
800 to 1500m
200 to 500 ft
< 800m
< 200 ft
Symbols :   Thunderstorms  Fog  Heavy snow  Heavy precipitations  Wind > 20 kt
SIGMETs :     Misc.  Thunderstorms  Icing  Turbulence  Mountain Waves  Volcanic Ashes







- Airport Elevation : 32 ft
- IATA code : LKZ


EGUL - RAF Lakenheath

CURRENT METAR :
  • 211151Z AUTO 13008KT 9999 OVC031 18/16 A3016 RMK AO2 SLP216

EXPIRED METARs :
  • 211111Z AUTO 13007KT 9999 OVC026 18/16 A3017 RMK AO2 SLP220
  • 211103Z AUTO 11007KT 9999 OVC025 18/16 A3017 RMK AO2 SLP220
  • 210958Z AUTO 14007KT 9999 OVC022 18/15 A3017 RMK AO2 SLP220 T01770148
  • 210912Z AUTO 13009KT 9999 BKN021 18/15 A3016 RMK AO2 BKN V SCT SLP216
  • 210902Z AUTO 14010KT 9999 BKN020 18/15 A3017 RMK AO2 BKN V FEW SLP220

TAF AMD TAF EGUL
Valid from the 21 at 09:00 until the 22 at 10:00 UTC


210913Z 2109/2210 14009KT 9999 SCT015 BKN025 QNH3012INS
TEMPO 2109/2111 BKN015
BECMG 2123/2124 15006KT 9999 BKN010 OVC020 QNH3009INS
TEMPO 2202/2206 6000 BR TX20/2115Z TN11/2206Z
No reported NOTAMs for that airfield.



MET'MAP, your aeronautical weather chart ! - Copyright ORBIFLY December 2007 - Disclaimer

ORBIFLY MET'MAP TEAM :

Programming & Development : Alexandra Zaïnal
Concept & Development : Baudouin d'Aumeries
Co-Development & Prog : Marc-Olivier Méhu
Technical & hardware support : Manuel Goepfert

Contact : metmap@orbifly.com




SOURCES & CREDITS :

   NOAA